Chain of Rocks, Missouri
Current Conditions -  °F | °C
As of 7:54 AM on Thursday 30 Oct 2014 (Local Time) from KSET Reporting Station
Scattered Clouds Scattered Clouds  
Wind Chill: 33°   Ceiling: Unl
Heat Index: 38°   Visibility: 10mi
Dew Point: 37°   Wind: 6mph
Humidity: 97%   Direction: 70°ENE
Pressure: 30.14"   Gusts: NA
Location:  38.9362°N, 90.7728°W
Report Text: KSET 301254Z AUTO 07005KT 10SM SCT090 03/03 A3014 RMK AO2 SLP207 T00330028
Loading
Personal Weather Stations






























Interactive Weather Map New forecast layout! Learn more

10-Day Weather Forecast

Advertisements
Track Severe Weather on mobile